Terminal Aerodrome Forecast
Issued by NWS Jackson, KY

Home | Current Version | Previous Version | Text Only | Print | Product List | Glossary On
Versions: 1 2 3 4 5 6 7 8 9 10 11 12 13 14 15 16 17 18 19 20
000
FTUS43 KJKL 212300 RRA
TAFLOZ
TAF
KLOZ 212341Z 2200/2224 24005KT P6SM SCT040
     FM220700 VRB03KT 4SM BR SCT040
     FM221400 25007KT P6SM BKN040
     FM221900 24007KT P6SM VCTS SCT050CB=

USA.gov is the U.S. government's official web portal to all federal, state and local government web resources and services.